Time;durP1;ratioP1;P1;durP2;ratioP2;P2;SDS_P1;SDS_P2;PMS_P1;PMS_P2;Temp;Humidity;BMP_temperature;BMP_pressure;BME280_temperature;BME280_humidity;BME280_pressure;Samples;Min_cycle;Max_cycle;Signal;HPM_P1;HPM_P2
2022/11/02 00:01:58;;;;;;;12.97;4.80;;;;;;;3.82;100.00;100189.42;1683450;85;20998;-73
2022/11/02 00:04:24;;;;;;;14.93;5.10;;;;;;;3.83;100.00;100192.47;1683566;85;21030;-73
2022/11/02 00:06:51;;;;;;;15.10;5.37;;;;;;;3.84;100.00;100188.81;1683674;85;20991;-73
2022/11/02 00:09:19;;;;;;;11.03;4.93;;;;;;;3.85;100.00;100183.83;1683470;85;21045;-72
2022/11/02 00:11:45;;;;;;;11.23;4.67;;;;;;;3.86;100.00;100186.02;1683757;85;21468;-73
2022/11/02 00:14:14;;;;;;;14.73;5.03;;;;;;;3.86;100.00;100183.34;1683381;85;21514;-73
2022/11/02 00:16:41;;;;;;;12.77;5.10;;;;;;;3.87;100.00;100177.87;1693646;84;20986;-73
2022/11/02 00:19:08;;;;;;;12.73;5.20;;;;;;;3.88;100.00;100166.67;1701532;84;21033;-74
2022/11/02 00:21:35;;;;;;;11.67;4.63;;;;;;;3.89;100.00;100163.03;1701811;84;21033;-74
2022/11/02 00:24:02;;;;;;;11.43;4.97;;;;;;;3.89;100.00;100162.53;1701408;84;21548;-73
2022/11/02 00:26:29;;;;;;;15.40;4.80;;;;;;;3.90;100.00;100167.42;1701860;84;21041;-74
2022/11/02 00:28:56;;;;;;;8.90;4.43;;;;;;;3.89;100.00;100159.02;1701600;83;21013;-73
2022/11/02 00:31:23;;;;;;;13.53;4.87;;;;;;;3.90;100.00;100157.56;1634343;84;21068;-74
2022/11/02 00:33:50;;;;;;;14.13;4.90;;;;;;;3.90;100.00;100161.58;1701833;84;21001;-73
2022/11/02 00:36:17;;;;;;;17.03;4.87;;;;;;;3.90;100.00;100165.59;1701795;83;21140;-73
2022/11/02 00:38:43;;;;;;;12.37;4.77;;;;;;;3.91;100.00;100170.44;1744909;81;20990;-73
2022/11/02 00:41:11;;;;;;;15.30;5.10;;;;;;;3.91;100.00;100176.66;1757353;82;21034;-73
2022/11/02 00:43:38;;;;;;;15.83;5.93;;;;;;;3.90;100.00;100181.64;1757192;82;21018;-73
2022/11/02 00:46:06;;;;;;;18.07;5.73;;;;;;;3.88;100.00;100178.70;1757109;82;21060;-72
2022/11/02 00:48:32;;;;;;;14.17;5.37;;;;;;;3.87;100.00;100185.05;1757726;82;20978;-74
2022/11/02 00:50:59;;;;;;;16.13;6.30;;;;;;;3.85;100.00;100178.98;1757655;82;21114;-73
2022/11/02 00:53:27;;;;;;;15.77;5.77;;;;;;;3.82;100.00;100181.40;1757854;82;21002;-73
2022/11/02 00:55:54;;;;;;;18.43;6.77;;;;;;;3.79;100.00;100181.17;1757591;82;21423;-74
2022/11/02 00:58:20;;;;;;;14.50;5.47;;;;;;;3.79;100.00;100173.64;1757501;82;21503;-73
2022/11/02 01:00:48;;;;;;;12.97;5.43;;;;;;;3.74;100.00;100169.99;1761434;81;20991;-74
2022/11/02 01:03:14;;;;;;;10.43;4.37;;;;;;;3.72;100.00;100166.59;1757695;82;21021;-73
2022/11/02 01:05:41;;;;;;;10.30;4.73;;;;;;;3.72;100.00;100161.25;1757381;82;21057;-74
2022/11/02 01:08:08;;;;;;;12.57;4.93;;;;;;;3.71;100.00;100152.84;1757812;82;21013;-73
2022/11/02 01:10:37;;;;;;;11.70;4.90;;;;;;;3.73;100.00;100165.61;1757403;82;21077;-73
2022/11/02 01:13:03;;;;;;;12.43;5.20;;;;;;;3.72;100.00;100163.92;1757320;82;21069;-73
2022/11/02 01:15:31;;;;;;;11.10;4.93;;;;;;;3.73;100.00;100166.94;1758665;81;21014;-77
2022/11/02 01:17:58;;;;;;;11.87;5.50;;;;;;;3.75;100.00;100172.17;1760046;80;21022;-78
2022/11/02 01:20:24;;;;;;;15.40;6.67;;;;;;;3.75;100.00;100172.17;1724090;83;21008;-76
2022/11/02 01:22:52;;;;;;;15.23;6.70;;;;;;;3.75;100.00;100165.02;1759583;81;20993;-76
2022/11/02 01:25:19;;;;;;;16.40;6.60;;;;;;;3.74;100.00;100165.14;1754255;82;21551;-78
2022/11/02 01:27:46;;;;;;;14.23;6.67;;;;;;;3.71;100.00;100166.22;1724124;83;21008;-77
2022/11/02 01:30:13;;;;;;;12.40;6.10;;;;;;;3.68;100.00;100164.28;1759680;81;21050;-77
2022/11/02 01:32:40;;;;;;;14.43;6.20;;;;;;;3.61;100.00;100166.59;1754491;82;20994;-78
2022/11/02 01:35:07;;;;;;;18.43;6.43;;;;;;;3.56;100.00;100174.12;1724381;83;21505;-77
2022/11/02 01:37:34;;;;;;;13.30;5.50;;;;;;;3.50;100.00;100167.95;1727217;81;20993;-77
2022/11/02 01:40:01;;;;;;;11.57;4.73;;;;;;;3.44;100.00;100170.63;1754030;81;21070;-76
2022/11/02 01:42:28;;;;;;;10.20;4.73;;;;;;;3.38;100.00;100169.77;1724449;83;21032;-78
2022/11/02 01:44:56;;;;;;;12.17;4.73;;;;;;;3.35;100.00;100166.02;1759609;81;21017;-76
2022/11/02 01:47:30;;;;;;;12.23;4.60;;;;;;;3.33;100.00;100167.48;1754276;82;21026;-77
2022/11/02 01:50:08;;;;;;;11.30;4.20;;;;;;;3.32;100.00;100171.11;1724364;83;21506;-77
2022/11/02 01:52:37;;;;;;;10.33;4.50;;;;;;;3.32;100.00;100161.75;1673949;83;21574;-77
2022/11/02 01:55:19;;;;;;;14.43;5.00;;;;;;;3.33;100.00;100147.89;1694684;85;21112;-76
2022/11/02 01:57:50;;;;;;;10.60;4.97;;;;;;;3.33;100.00;100149.23;1694011;85;21503;-77
2022/11/02 02:00:17;;;;;;;13.73;4.83;;;;;;;3.32;100.00;100155.57;1695074;85;21006;-77
2022/11/02 02:03:17;;;;;;;12.33;4.60;;;;;;;3.29;100.00;100156.64;1694627;85;21518;-78
2022/11/02 02:05:48;;;;;;;12.43;4.77;;;;;;;3.29;100.00;100164.66;1695051;85;21006;-78
2022/11/02 02:08:19;;;;;;;10.10;4.53;;;;;;;3.27;100.00;100157.25;1695139;85;21523;-78
2022/11/02 02:10:46;;;;;;;10.77;4.83;;;;;;;3.25;100.00;100160.54;1694698;85;21014;-77
2022/11/02 02:13:13;;;;;;;10.10;4.70;;;;;;;3.23;100.00;100155.80;1695100;85;21001;-77
2022/11/02 02:16:08;;;;;;;10.97;4.97;;;;;;;3.22;100.00;100150.09;1695173;84;21110;-78
2022/11/02 02:18:51;;;;;;;8.13;4.05;;;;;;;3.21;100.00;100148.41;1683437;85;21086;-78
2022/11/02 02:21:24;;;;;;;8.80;4.83;;;;;;;3.19;100.00;100149.02;1641716;87;21108;-77
2022/11/02 02:24:06;;;;;;;12.45;4.62;;;;;;;3.19;100.00;100163.22;1678674;85;21062;-78
2022/11/02 02:27:03;;;;;;;10.40;4.47;;;;;;;3.21;100.00;100158.59;1641805;87;21093;-77
2022/11/02 02:29:44;;;;;;;10.57;5.20;;;;;;;3.21;100.00;100157.26;1683641;85;21010;-80
2022/11/02 02:32:32;;;;;;;13.30;5.20;;;;;;;3.21;100.00;100160.42;1637389;88;21073;-77
2022/11/02 02:35:25;;;;;;;9.97;4.37;;;;;;;3.21;100.00;100154.59;1560965;92;21093;-77
2022/11/02 02:38:00;;;;;;;16.32;5.62;;;;;;;3.21;100.00;100154.59;1535961;93;21127;-79
2022/11/02 02:40:42;;;;;;;11.27;5.00;;;;;;;3.19;100.00;100153.86;1535810;93;21135;-78
2022/11/02 02:43:18;;;;;;;10.77;4.77;;;;;;;3.18;100.00;100160.16;1536051;93;21581;-77
2022/11/02 02:45:52;;;;;;;9.13;4.50;;;;;;;3.17;100.00;100162.95;1535996;92;21101;-77
2022/11/02 02:48:20;;;;;;;11.40;5.07;;;;;;;3.16;100.00;100167.95;1530898;93;21367;-77
2022/11/02 02:50:49;;;;;;;9.57;4.67;;;;;;;3.14;100.00;100164.06;1535619;93;21578;-78
2022/11/02 02:53:21;;;;;;;10.33;5.70;;;;;;;3.14;100.00;100168.06;1535797;93;21122;-78
2022/11/02 02:55:48;;;;;;;12.40;7.00;;;;;;;3.14;100.00;100171.23;1535713;93;21606;-77
2022/11/02 02:58:24;;;;;;;12.93;6.23;;;;;;;3.13;100.00;100173.53;1535473;93;21089;-78
2022/11/02 03:03:25;;;;;;;10.63;4.90;;;;;;;3.12;100.00;100168.68;1498660;96;21185;-79
2022/11/02 03:06:15;;;;;;;10.33;4.57;;;;;;;3.10;100.00;100175.97;1483653;97;21107;-78
2022/11/02 03:09:04;;;;;;;10.57;4.13;;;;;;;3.09;100.00;100168.91;1483755;97;21532;-77
2022/11/02 03:11:33;;;;;;;6.63;4.10;;;;;;;3.06;100.00;100170.48;1459762;98;21069;-77
2022/11/02 03:14:08;;;;;;;13.70;4.83;;;;;;;3.03;100.00;100168.91;1458309;98;21113;-78
2022/11/02 03:16:49;;;;;;;9.67;4.50;;;;;;;3.01;100.00;100164.17;1455484;98;21121;-77
2022/11/02 03:19:46;;;;;;;12.07;4.87;;;;;;;2.97;100.00;100156.51;1492092;96;21095;-77
2022/11/02 03:22:27;;;;;;;9.00;4.27;;;;;;;2.92;100.00;100160.02;1496469;96;21185;-78
2022/11/02 03:25:24;;;;;;;10.53;4.50;;;;;;;2.90;100.00;100162.80;1450476;98;21578;-77
2022/11/02 03:28:13;;;;;;;8.20;4.27;;;;;;;2.89;100.00;100173.63;1506642;91;21117;-78
2022/11/02 03:30:45;;;;;;;11.23;4.70;;;;;;;2.88;100.00;100165.24;1546082;92;21085;-77
2022/11/02 03:33:33;;;;;;;14.03;4.67;;;;;;;2.89;100.00;100157.61;1570021;91;21062;-77
2022/11/02 03:36:10;;;;;;;11.37;4.83;;;;;;;2.89;100.00;100148.26;1566393;91;21190;-77
2022/11/02 03:38:46;;;;;;;10.73;4.00;;;;;;;2.89;100.00;100134.91;1569936;91;21110;-78
2022/11/02 03:41:14;;;;;;;5.80;3.37;;;;;;;2.89;100.00;100131.73;1520741;94;21146;-78
2022/11/02 03:43:41;;;;;;;5.83;3.27;;;;;;;2.90;100.00;100137.92;1520579;94;21150;-77
2022/11/02 03:46:09;;;;;;;7.40;3.77;;;;;;;2.92;100.00;100137.31;1520754;94;21130;-78
2022/11/02 03:48:44;;;;;;;10.43;3.53;;;;;;;2.94;100.00;100133.57;1560304;92;21057;-78
2022/11/02 03:51:14;;;;;;;7.30;3.47;;;;;;;2.96;100.00;100135.63;1543481;93;21076;-77
2022/11/02 03:53:54;;;;;;;10.10;4.37;;;;;;;3.00;100.00;100136.24;1594256;90;21121;-76
2022/11/02 03:56:28;;;;;;;7.20;3.60;;;;;;;3.02;100.00;100135.63;1593843;90;21555;-78
2022/11/02 03:58:55;;;;;;;10.30;4.10;;;;;;;3.02;100.00;100131.63;1604640;86;21034;-77
2022/11/02 04:01:22;;;;;;;14.40;4.60;;;;;;;3.00;100.00;100129.56;1604666;88;21054;-78
2022/11/02 04:03:49;;;;;;;11.03;4.13;;;;;;;2.98;100.00;100127.50;1605640;89;21617;-76
2022/11/02 04:06:17;;;;;;;8.63;4.00;;;;;;;2.94;100.00;100118.87;1605707;89;21157;-77
2022/11/02 04:08:47;;;;;;;9.80;4.47;;;;;;;2.91;100.00;100119.11;1605626;89;21576;-78
2022/11/02 04:16:48;;;;;;;11.77;4.30;;;;;;;2.84;100.00;100121.90;1607856;88;21176;-79
2022/11/02 04:19:28;;;;;;;9.33;4.87;;;;;;;2.84;100.00;100125.91;1594186;90;21043;-78
2022/11/02 04:27:34;;;;;;;6.57;3.63;;;;;;;2.90;100.00;100125.91;1597926;89;21048;-78
2022/11/02 04:30:01;;;;;;;9.67;4.33;;;;;;;2.95;100.00;100123.73;1607675;89;21629;-78
2022/11/02 04:35:14;;;;;;;11.10;4.67;;;;;;;3.06;100.00;100115.70;1588107;90;21080;-72
2022/11/02 04:40:29;;;;;;;12.30;5.30;;;;;;;3.19;100.00;100108.93;1588397;90;21120;-74
2022/11/02 04:42:57;;;;;;;19.00;5.63;;;;;;;3.25;100.00;100108.92;1588604;90;21053;-73
2022/11/02 04:45:24;;;;;;;13.93;5.93;;;;;;;3.32;100.00;100110.12;1588282;90;21550;-74
2022/11/02 04:47:51;;;;;;;14.60;5.50;;;;;;;3.38;100.00;100100.27;1588585;90;21085;-74
2022/11/02 04:50:19;;;;;;;9.90;4.93;;;;;;;3.45;100.00;100102.81;1588298;90;21092;-74
2022/11/02 04:52:46;;;;;;;12.47;5.67;;;;;;;3.51;100.00;100095.65;1588519;90;21088;-73
2022/11/02 04:55:12;;;;;;;10.37;4.80;;;;;;;3.54;100.00;100086.05;1590707;90;21145;-74
2022/11/02 04:57:44;;;;;;;10.83;5.03;;;;;;;3.60;100.00;100094.89;1594742;90;21060;-73
2022/11/02 05:00:15;;;;;;;13.07;4.87;;;;;;;3.65;100.00;100094.53;1607098;89;22302;-73
2022/11/02 05:02:42;;;;;;;7.30;3.97;;;;;;;3.71;100.00;100110.06;1607397;89;21039;-73
2022/11/02 05:05:11;;;;;;;14.07;5.43;;;;;;;3.76;100.00;100109.70;1607183;89;21058;-73
2022/11/02 05:07:38;;;;;;;10.83;5.50;;;;;;;3.83;100.00;100126.09;1607357;89;21070;-74
2022/11/02 05:10:07;;;;;;;10.40;4.77;;;;;;;3.87;100.00;100131.05;1607159;89;21090;-73
2022/11/02 05:12:34;;;;;;;10.90;5.07;;;;;;;3.93;100.00;100135.05;1612593;88;21029;-74
2022/11/02 05:15:03;;;;;;;16.73;5.47;;;;;;;3.99;100.00;100146.59;1617801;88;21107;-73
2022/11/02 05:17:31;;;;;;;17.27;6.23;;;;;;;4.03;100.00;100144.02;1619836;83;21152;-74
2022/11/02 05:19:58;;;;;;;15.53;6.33;;;;;;;4.08;100.00;100136.47;1718679;83;21040;-74
2022/11/02 05:22:25;;;;;;;16.80;7.27;;;;;;;4.13;100.00;100133.42;1718892;83;21039;-73
2022/11/02 05:24:53;;;;;;;24.23;9.63;;;;;;;4.16;100.00;100138.03;1718705;83;21087;-74
2022/11/02 05:27:20;;;;;;;21.17;9.63;;;;;;;4.21;100.00;100133.61;1719585;82;21008;-74
2022/11/02 05:29:48;;;;;;;25.73;10.00;;;;;;;4.26;100.00;100135.42;1719049;83;21063;-74
2022/11/02 05:32:16;;;;;;;21.43;8.67;;;;;;;4.28;100.00;100148.68;1719359;83;21051;-73
2022/11/02 05:34:43;;;;;;;14.93;6.73;;;;;;;4.31;100.00;100140.40;1719470;82;21044;-72
2022/11/02 05:37:09;;;;;;;15.83;6.60;;;;;;;4.33;100.00;100151.33;1718004;83;20998;-74
2022/11/02 05:39:37;;;;;;;17.33;6.93;;;;;;;4.36;100.00;100143.05;1760434;81;21018;-73
2022/11/02 05:42:04;;;;;;;13.57;6.60;;;;;;;4.43;100.00;100143.89;1760788;80;21014;-73
2022/11/02 05:44:33;;;;;;;18.73;7.07;;;;;;;4.49;100.00;100149.55;1760500;81;21041;-74
2022/11/02 05:47:00;;;;;;;15.23;6.93;;;;;;;4.54;100.00;100152.70;1763289;81;21032;-74
2022/11/02 05:49:27;;;;;;;19.10;7.23;;;;;;;4.55;100.00;100166.45;1759687;81;20985;-74
2022/11/02 05:51:53;;;;;;;20.40;7.57;;;;;;;4.54;100.00;100161.23;1766249;81;20998;-73
2022/11/02 05:54:20;;;;;;;16.33;6.67;;;;;;;4.52;100.00;100164.03;1722248;83;21038;-73
2022/11/02 05:56:46;;;;;;;20.63;7.40;;;;;;;4.51;100.00;100163.66;1719184;83;21050;-75
2022/11/02 05:59:13;;;;;;;17.03;7.13;;;;;;;4.50;100.00;100151.77;1719579;83;21063;-76
2022/11/02 06:01:41;;;;;;;20.00;7.37;;;;;;;4.49;100.00;100150.89;1745372;82;21010;-76
2022/11/02 06:04:08;;;;;;;20.43;7.57;;;;;;;4.48;100.00;100147.88;1731808;81;21525;-76
2022/11/02 06:06:36;;;;;;;21.40;7.70;;;;;;;4.49;100.00;100151.39;1758257;82;20990;-76
2022/11/02 06:09:05;;;;;;;20.13;8.43;;;;;;;4.51;100.00;100145.41;1758261;82;21448;-76
2022/11/02 06:11:32;;;;;;;20.03;8.27;;;;;;;4.54;100.00;100136.63;1758394;82;21069;-77
2022/11/02 06:14:02;;;;;;;17.30;6.70;;;;;;;4.62;100.00;100130.64;1781638;79;20989;-78
2022/11/02 06:16:29;;;;;;;18.23;7.37;;;;;;;4.69;100.00;100131.81;1739974;81;21055;-76
2022/11/02 06:18:56;;;;;;;17.97;8.10;;;;;;;4.78;100.00;100132.86;1772688;80;21093;-75
2022/11/02 06:21:23;;;;;;;21.97;8.47;;;;;;;4.87;100.00;100137.89;1779733;81;21038;-75
2022/11/02 06:23:50;;;;;;;48.77;25.97;;;;;;;4.98;100.00;100138.33;1780185;81;20990;-76
2022/11/02 06:26:18;;;;;;;43.37;20.23;;;;;;;5.04;100.00;100139.13;1780951;81;21004;-79
2022/11/02 06:28:44;;;;;;;33.17;16.37;;;;;;;5.08;100.00;100137.40;1780819;81;21051;-76
2022/11/02 06:31:15;;;;;;;26.47;11.13;;;;;;;5.13;100.00;100134.30;1781330;81;20993;-77
2022/11/02 06:33:44;;;;;;;28.90;10.50;;;;;;;5.20;100.00;100130.09;1781334;81;21487;-80
2022/11/02 06:36:10;;;;;;;22.40;7.97;;;;;;;5.31;100.00;100125.13;1784148;80;20990;-79
2022/11/02 06:38:38;;;;;;;20.13;7.87;;;;;;;5.45;100.00;100125.25;1785687;79;21018;-75
2022/11/02 06:41:06;;;;;;;16.23;6.77;;;;;;;5.67;100.00;100122.87;1786262;80;21026;-79
2022/11/02 06:43:37;;;;;;;16.90;6.60;;;;;;;6.00;100.00;100122.16;1722344;83;21630;-78
2022/11/02 06:46:05;;;;;;;13.03;5.97;;;;;;;6.37;100.00;100121.48;1780307;80;21014;-80
2022/11/02 06:48:32;;;;;;;16.83;6.37;;;;;;;6.73;100.00;100132.46;1790875;80;21025;-78
2022/11/02 06:50:59;;;;;;;18.37;6.87;;;;;;;7.05;100.00;100130.78;1803156;79;20990;-77
2022/11/02 06:53:26;;;;;;;17.93;7.40;;;;;;;7.26;100.00;100131.05;1814899;79;21435;-75
2022/11/02 06:55:56;;;;;;;16.57;6.77;;;;;;;7.42;100.00;100129.95;1815597;79;21041;-78
2022/11/02 06:58:23;;;;;;;20.90;8.43;;;;;;;7.70;100.00;100136.66;1816321;79;21021;-81
2022/11/02 07:01:03;;;;;;;18.30;7.10;;;;;;;7.83;100.00;100139.85;1801595;79;21458;-75
2022/11/02 07:03:30;;;;;;;16.70;7.07;;;;;;;7.88;100.00;100142.94;1790318;80;21109;-77
2022/11/02 07:05:57;;;;;;;14.10;5.80;;;;;;;7.94;100.00;100152.25;1795053;78;21061;-80
2022/11/02 07:08:24;;;;;;;19.00;7.83;;;;;;;7.99;100.00;100152.65;1784046;79;21002;-77
2022/11/02 07:10:51;;;;;;;16.93;6.80;;;;;;;8.04;100.00;100142.27;1752532;81;21026;-81
2022/11/02 07:13:21;;;;;;;17.07;6.40;;;;;;;8.23;100.00;100143.12;1755668;81;21030;-79
2022/11/02 07:15:52;;;;;;;22.30;7.53;;;;;;;8.51;100.00;100142.57;1755303;82;21031;-78
2022/11/02 07:18:21;;;;;;;17.73;6.37;;;;;;;8.68;100.00;100143.56;1762641;79;21109;-78
2022/11/02 07:20:48;;;;;;;16.20;6.53;;;;;;;8.78;100.00;100143.45;1777122;79;21090;-76
2022/11/02 07:23:15;;;;;;;16.13;6.53;;;;;;;8.84;100.00;100148.23;1771833;79;21027;-78
2022/11/02 07:25:42;;;;;;;15.03;6.00;;;;;;;8.93;100.00;100145.94;1759372;81;21051;-79
2022/11/02 07:28:09;;;;;;;16.27;6.33;;;;;;;9.08;100.00;100152.94;1789990;79;21067;-77
2022/11/02 07:30:37;;;;;;;16.87;5.97;;;;;;;9.18;100.00;100150.98;1794955;79;20969;-77
2022/11/02 07:33:04;;;;;;;14.65;6.22;;;;;;;9.35;100.00;100158.69;1807688;79;20981;-79
2022/11/02 07:35:33;;;;;;;16.70;5.75;;;;;;;9.60;100.00;100164.20;1806641;79;21020;-79
2022/11/02 07:38:02;;;;;;;17.05;6.72;;;;;;;9.79;100.00;100161.25;1796539;79;21038;-79
2022/11/02 07:40:31;;;;;;;17.20;7.08;;;;;;;9.82;100.00;100158.72;1784907;80;21085;-81
2022/11/02 07:42:58;;;;;;;16.50;6.37;;;;;;;9.87;100.00;100157.21;1785710;80;21018;-78
2022/11/02 07:45:33;;;;;;;16.77;6.65;;;;;;;9.77;100.00;100148.39;1769709;80;21066;-76
2022/11/02 07:48:00;;;;;;;16.40;7.12;;;;;;;9.80;100.00;100144.02;1755959;82;21042;-75
2022/11/02 07:50:27;;;;;;;17.23;7.30;;;;;;;9.69;100.00;100149.22;1723686;83;21073;-79
2022/11/02 07:52:56;;;;;;;14.15;6.70;;;;;;;9.50;100.00;100147.61;1756878;81;21030;-75
2022/11/02 07:55:25;;;;;;;16.50;6.37;;;;;;;9.28;100.00;100150.89;1748872;82;21066;-73
2022/11/02 07:57:59;;;;;;;15.55;6.40;;;;;;;9.17;100.00;100146.61;1755341;80;21021;-76
2022/11/02 08:00:30;;;;;;;16.73;6.55;;;;;;;9.05;100.00;100139.79;1753028;81;21027;-72
2022/11/02 08:02:58;;;;;;;15.83;5.97;;;;;;;8.98;100.00;100140.92;1757382;80;21146;-81
2022/11/02 08:05:26;;;;;;;14.93;6.40;;;;;;;9.04;100.00;100132.17;1753915;80;20968;-74
2022/11/02 08:08:01;;;;;;;14.70;6.37;;;;;;;9.19;100.00;100129.76;1771859;80;21710;-76
2022/11/02 08:10:30;;;;;;;18.60;7.12;;;;;;;9.33;100.00;100132.84;1756906;80;21046;-83
2022/11/02 08:12:57;;;;;;;14.07;6.17;;;;;;;9.47;100.00;100120.09;1731703;81;21530;-74
2022/11/02 08:15:24;;;;;;;16.48;6.25;;;;;;;9.74;100.00;100117.69;1739374;80;21126;-76
2022/11/02 08:18:08;;;;;;;18.52;7.70;;;;;;;10.04;100.00;100106.79;1735271;81;21055;-79
2022/11/02 08:20:36;;;;;;;15.30;6.78;;;;;;;10.20;100.00;100112.73;1729220;82;21576;-78
2022/11/02 08:23:04;;;;;;;14.90;6.90;;;;;;;10.41;100.00;100103.30;1717987;82;21009;-80
2022/11/02 08:25:33;;;;;;;13.30;5.70;;;;;;;10.59;100.00;100096.39;1713919;81;21464;-78
2022/11/02 08:28:00;;;;;;;13.20;5.62;;;;;;;10.73;100.00;100099.77;1711868;82;21101;-75
2022/11/02 08:30:28;;;;;;;17.87;6.30;;;;;;;10.80;100.00;100103.47;1691218;83;21035;-73
2022/11/02 08:32:55;;;;;;;12.33;5.50;;;;;;;10.83;100.00;100094.16;1692487;83;21047;-74
2022/11/02 08:35:22;;;;;;;14.87;5.30;;;;;;;10.79;100.00;100095.00;1699386;83;21160;-79
2022/11/02 08:37:55;;;;;;;17.40;6.83;;;;;;;10.79;100.00;100090.11;1715881;83;21038;-71
2022/11/02 08:40:23;;;;;;;17.32;6.62;;;;;;;10.74;100.00;100085.72;1711132;84;21572;-76
2022/11/02 08:42:59;;;;;;;14.55;6.05;;;;;;;10.69;100.00;100086.73;1707026;83;21025;-71
2022/11/02 08:45:27;;;;;;;17.82;6.05;;;;;;;10.60;100.00;100083.20;1748852;80;21023;-73
2022/11/02 08:47:54;;;;;;;19.07;7.37;;;;;;;10.63;100.00;100079.64;1709375;82;20983;-72
2022/11/02 08:50:21;;;;;;;22.55;10.35;;;;;;;10.83;100.00;100078.76;1716680;81;21513;-74
2022/11/02 08:52:48;;;;;;;20.27;6.95;;;;;;;10.96;100.00;100071.48;1692781;83;21539;-77
2022/11/02 08:55:15;;;;;;;17.85;7.50;;;;;;;11.07;100.00;100068.92;1698077;83;21018;-73
2022/11/02 08:57:49;;;;;;;19.75;8.80;;;;;;;11.45;100.00;100060.14;1698606;83;21062;-74
2022/11/02 09:00:16;;;;;;;;;;;;;;;11.89;100.00;100045.50;1648840;85;21046;-81
2022/11/02 09:03:00;;;;;;;17.87;7.03;;;;;;;12.17;100.00;100046.88;1647755;86;20131;-73
2022/11/02 09:05:29;;;;;;;15.17;6.37;;;;;;;12.28;100.00;100041.86;1628293;88;21079;-73
2022/11/02 09:07:59;;;;;;;13.45;5.47;;;;;;;12.33;100.00;100037.25;1629266;88;21716;-75
2022/11/02 09:10:27;;;;;;;14.68;4.72;;;;;;;12.23;100.00;100038.01;1623798;88;21109;-70
2022/11/02 09:12:55;;;;;;;12.53;5.37;;;;;;;12.09;100.00;100028.30;1666004;86;21466;-76
2022/11/02 09:15:21;;;;;;;17.50;6.00;;;;;;;11.95;100.00;100027.70;1668223;86;21025;-74
2022/11/02 09:17:49;;;;;;;14.33;5.97;;;;;;;11.79;100.00;100027.27;1658934;85;21057;-73
2022/11/02 09:20:17;;;;;;;10.72;4.72;;;;;;;11.68;100.00;100017.70;1648323;86;21165;-73
2022/11/02 09:22:44;;;;;;;12.25;5.40;;;;;;;11.54;100.00;100023.39;1621563;87;21057;-82
2022/11/02 09:25:14;;;;;;;19.73;7.17;;;;;;;11.43;100.00;100017.52;1615234;87;21111;-82
2022/11/02 09:27:41;;;;;;;22.95;8.88;;;;;;;11.33;100.00;100005.54;1597962;87;21602;-79
2022/11/02 09:30:09;;;;;;;15.18;6.28;;;;;;;11.23;100.00;100007.13;1617910;87;21049;-80
2022/11/02 09:32:40;;;;;;;16.35;5.60;;;;;;;11.21;100.00;100003.75;1656103;87;21058;-81
2022/11/02 09:35:17;;;;;;;12.73;5.05;;;;;;;11.18;100.00;99993.27;1657929;87;21006;-80
2022/11/02 09:37:46;;;;;;;11.28;5.05;;;;;;;11.12;100.00;99989.41;1604946;89;21039;-80
2022/11/02 09:40:13;;;;;;;9.58;4.45;;;;;;;11.06;100.00;99990.09;1606328;88;21134;-75
2022/11/02 09:42:48;;;;;;;8.35;3.95;;;;;;;10.98;100.00;99976.11;1584442;88;21093;-74
2022/11/02 09:45:17;;;;;;;14.85;5.17;;;;;;;10.91;100.00;99970.23;1607181;88;21046;-76
2022/11/02 09:47:56;;;;;;;9.40;4.35;;;;;;;10.87;100.00;99969.73;1607175;89;21619;-80
2022/11/02 09:50:26;;;;;;;7.75;3.80;;;;;;;10.91;100.00;99964.82;1562488;92;21155;-80
2022/11/02 09:53:01;;;;;;;6.72;3.92;;;;;;;11.00;100.00;99948.88;1565557;92;21146;-77
2022/11/02 09:55:35;;;;;;;8.60;3.50;;;;;;;11.06;100.00;99943.27;1554325;92;21112;-77
2022/11/02 09:58:20;;;;;;;9.98;4.22;;;;;;;11.06;100.00;99940.05;1565355;90;21098;-79
2022/11/02 10:00:47;;;;;;;10.78;3.90;;;;;;;10.97;100.00;99937.88;1604544;88;21052;-77
2022/11/02 10:03:41;;;;;;;7.58;3.70;;;;;;;10.98;100.00;99935.52;1615534;89;21079;-79
2022/11/02 10:06:17;;;;;;;9.95;4.08;;;;;;;10.97;100.00;99929.77;1615913;87;21059;-74
2022/11/02 10:09:22;;;;;;;8.23;3.85;;;;;;;10.96;100.00;99922.69;1649702;87;21071;-79
2022/11/02 10:11:58;;;;;;;11.08;3.58;;;;;;;11.01;100.00;99917.59;1650208;86;21190;-80
2022/11/02 10:14:35;;;;;;;7.08;3.83;;;;;;;11.11;100.00;99914.66;1651013;87;21081;-77
2022/11/02 10:17:19;;;;;;;9.88;3.42;;;;;;;11.12;100.00;99916.34;1602241;89;21057;-77
2022/11/02 10:19:57;;;;;;;10.53;3.95;;;;;;;11.11;100.00;99911.11;1555356;91;21649;-82
2022/11/02 10:22:36;;;;;;;7.75;3.60;;;;;;;11.18;100.00;99906.67;1496183;96;21179;-76
2022/11/02 10:25:05;;;;;;;7.85;3.72;;;;;;;11.19;100.00;99906.50;1450037;98;21133;-80
2022/11/02 10:27:36;;;;;;;11.90;4.47;;;;;;;11.16;100.00;99898.73;1467657;96;21105;-78
2022/11/02 10:30:13;;;;;;;7.72;3.72;;;;;;;11.13;100.00;99895.53;1467760;98;21092;-77
2022/11/02 10:32:41;;;;;;;8.13;3.75;;;;;;;11.14;100.00;99886.41;1468516;98;21684;-78
2022/11/02 10:35:25;;;;;;;7.37;3.52;;;;;;;11.10;100.00;99889.12;1482053;96;21486;-78
2022/11/02 10:38:16;;;;;;;8.33;3.85;;;;;;;11.05;100.00;99880.69;1485001;97;21134;-77
2022/11/02 10:41:20;;;;;;;8.93;4.22;;;;;;;10.98;100.00;99873.81;1481594;96;21181;-79
2022/11/02 10:44:22;;;;;;;12.33;4.85;;;;;;;10.95;100.00;99864.70;1486381;96;21152;-83
2022/11/02 10:47:06;;;;;;;14.30;4.97;;;;;;;10.98;100.00;99860.29;1510007;93;21097;-75
2022/11/02 10:49:59;;;;;;;11.12;4.10;;;;;;;10.96;100.00;99850.13;1516454;93;21096;-77
2022/11/02 10:52:35;;;;;;;9.63;4.47;;;;;;;11.01;100.00;99847.73;1518928;94;21560;-74
2022/11/02 10:55:04;;;;;;;8.55;4.12;;;;;;;11.08;100.00;99839.75;1518356;94;21658;-77
2022/11/02 10:57:31;;;;;;;7.90;3.67;;;;;;;11.13;100.00;99835.48;1516822;94;21598;-75
2022/11/02 11:00:29;;;;;;;13.20;4.78;;;;;;;11.21;100.00;99822.42;1521864;93;21038;-78
2022/11/02 11:03:10;;;;;;;11.35;3.92;;;;;;;11.25;100.00;99824.25;1511664;92;21042;-75
2022/11/02 11:05:51;;;;;;;7.87;3.60;;;;;;;11.34;100.00;99820.45;1528219;90;21620;-73
2022/11/02 11:08:38;;;;;;;9.55;4.03;;;;;;;11.34;100.00;99818.58;1518243;94;21166;-78
2022/11/02 11:11:20;;;;;;;10.58;3.80;;;;;;;11.25;100.00;99816.97;1517557;94;21199;-77
2022/11/02 11:14:07;;;;;;;9.75;4.20;;;;;;;11.20;100.00;99814.80;1514682;93;21173;-76
2022/11/02 11:16:50;;;;;;;11.88;4.55;;;;;;;11.13;100.00;99809.77;1491279;96;21612;-77
2022/11/02 11:19:30;;;;;;;12.40;4.85;;;;;;;11.09;100.00;99807.62;1499362;94;21171;-76
2022/11/02 11:21:57;;;;;;;11.03;4.03;;;;;;;11.07;100.00;99801.04;1515339;94;21160;-82
2022/11/02 11:24:33;;;;;;;11.45;3.90;;;;;;;11.08;100.00;99793.23;1516303;93;21093;-80
2022/11/02 11:27:12;;;;;;;10.18;4.42;;;;;;;11.08;100.00;99778.35;1538550;93;21169;-78
2022/11/02 11:29:42;;;;;;;12.55;4.62;;;;;;;11.06;100.00;99780.41;1538485;93;21130;-76
2022/11/02 11:32:26;;;;;;;11.68;4.58;;;;;;;11.05;100.00;99781.45;1492195;96;21160;-76
2022/11/02 11:35:04;;;;;;;9.10;4.47;;;;;;;11.04;100.00;99773.50;1473473;96;21202;-75
2022/11/02 11:37:34;;;;;;;8.98;4.17;;;;;;;11.01;100.00;99766.09;1476639;96;21099;-78
2022/11/02 11:40:06;;;;;;;13.08;4.47;;;;;;;10.99;100.00;99764.05;1453429;99;21115;-78
2022/11/02 11:42:35;;;;;;;11.73;4.45;;;;;;;11.00;100.00;99764.91;1453136;99;21115;-80
2022/11/02 11:45:23;;;;;;;16.32;5.10;;;;;;;11.02;100.00;99760.15;1462429;96;21080;-80
2022/11/02 11:47:57;;;;;;;10.88;4.22;;;;;;;10.99;100.00;99756.45;1512236;94;21073;-80
2022/11/02 11:50:26;;;;;;;8.95;4.00;;;;;;;10.98;100.00;99747.50;1508512;95;21108;-79
2022/11/02 11:53:24;;;;;;;11.03;4.42;;;;;;;10.98;100.00;99747.50;1508984;95;21233;-77
2022/11/02 11:55:58;;;;;;;18.40;6.62;;;;;;;10.99;100.00;99745.11;1450900;99;21150;-81
2022/11/02 11:58:27;;;;;;;10.38;4.40;;;;;;;10.95;100.00;99741.61;1451089;99;21118;-81